createdAt,value
2018-07-03T00:00:39.879Z,98.00
2018-07-03T00:03:37.727Z,98.20
2018-07-03T00:06:35.312Z,98.60
2018-07-03T00:09:32.958Z,98.50
2018-07-03T00:12:31.850Z,98.60
2018-07-03T00:15:29.660Z,98.50
2018-07-03T00:18:27.547Z,98.60
2018-07-03T00:21:25.404Z,98.90
2018-07-03T00:24:23.302Z,99.00
2018-07-03T00:27:22.081Z,99.10
2018-07-03T00:30:20.139Z,99.50
2018-07-03T00:33:17.811Z,99.50
2018-07-03T00:36:15.708Z,99.80
2018-07-03T00:39:12.847Z,99.90
2018-07-03T00:42:10.724Z,99.90
2018-07-03T00:45:07.916Z,99.90
2018-07-03T00:48:06.090Z,99.90
2018-07-03T00:51:03.925Z,99.90
2018-07-03T00:54:02.041Z,99.90
2018-07-03T00:56:59.305Z,99.90
2018-07-03T01:00:02.419Z,99.90
2018-07-03T01:03:01.184Z,99.90
2018-07-03T01:05:58.447Z,99.90
2018-07-03T01:08:55.686Z,99.90
2018-07-03T01:11:52.879Z,99.90
2018-07-03T01:14:50.890Z,99.90
2018-07-03T01:17:48.908Z,99.90
2018-07-03T01:20:46.789Z,99.90
2018-07-03T01:23:44.867Z,99.90
2018-07-03T01:26:42.735Z,99.90
2018-07-03T01:29:40.791Z,99.90
2018-07-03T01:32:38.737Z,99.90
2018-07-03T01:35:36.674Z,99.90
2018-07-03T01:38:34.657Z,99.90
2018-07-03T01:41:32.509Z,99.90
2018-07-03T01:44:30.447Z,99.90
2018-07-03T01:47:28.320Z,99.90
2018-07-03T01:50:26.008Z,99.90
2018-07-03T01:53:23.951Z,99.90
2018-07-03T01:56:21.787Z,99.90
2018-07-03T01:59:19.666Z,99.90
2018-07-03T02:02:17.633Z,99.90
2018-07-03T02:05:15.734Z,99.90
2018-07-03T02:08:13.762Z,99.90
2018-07-03T02:11:10.878Z,99.90
2018-07-03T02:14:08.916Z,99.90
2018-07-03T02:17:07.055Z,99.90
2018-07-03T02:20:05.114Z,99.90
2018-07-03T02:23:03.217Z,99.90
2018-07-03T02:26:00.543Z,99.90
2018-07-03T02:28:58.559Z,99.90
2018-07-03T02:31:56.527Z,99.90
2018-07-03T02:34:53.720Z,99.90
2018-07-03T02:37:51.639Z,99.90
2018-07-03T02:40:48.840Z,99.90
2018-07-03T02:43:46.722Z,99.90
2018-07-03T02:46:44.795Z,99.90
2018-07-03T02:49:42.943Z,99.90
2018-07-03T02:52:40.371Z,99.90
2018-07-03T02:55:38.443Z,99.90
2018-07-03T02:58:35.562Z,99.90
2018-07-03T03:01:33.301Z,99.90
2018-07-03T03:04:30.862Z,99.90
2018-07-03T03:07:28.782Z,99.90
2018-07-03T03:10:26.723Z,99.90
2018-07-03T03:13:24.481Z,99.90
2018-07-03T03:16:22.292Z,99.90
2018-07-03T03:19:21.275Z,99.90
2018-07-03T03:22:19.041Z,99.90
2018-07-03T03:25:16.921Z,99.90
2018-07-03T03:28:14.682Z,99.90
2018-07-03T03:34:02.685Z,99.90
2018-07-03T03:37:00.754Z,99.90
2018-07-03T03:39:58.757Z,99.90
2018-07-03T03:42:56.669Z,99.90
2018-07-03T03:45:54.655Z,99.90
2018-07-03T03:48:52.462Z,99.90
2018-07-03T03:51:50.292Z,99.90
2018-07-03T03:54:48.072Z,99.90
2018-07-03T03:57:45.986Z,99.90
2018-07-03T04:00:43.825Z,99.90
2018-07-03T04:03:41.504Z,99.90
2018-07-03T04:06:39.308Z,99.90
2018-07-03T04:09:37.154Z,99.90
2018-07-03T04:12:34.882Z,99.90
2018-07-03T04:15:32.933Z,99.90
2018-07-03T04:18:35.738Z,99.90
2018-07-03T04:21:33.663Z,99.90
2018-07-03T04:24:31.515Z,99.90
2018-07-03T04:27:29.592Z,99.90
2018-07-03T04:30:27.425Z,99.90
2018-07-03T04:33:25.193Z,99.90
2018-07-03T04:36:23.023Z,99.90
2018-07-03T04:39:22.030Z,99.90
2018-07-03T04:42:20.140Z,99.90
2018-07-03T04:45:18.188Z,99.90
2018-07-03T04:48:15.562Z,99.90
2018-07-03T04:51:13.263Z,99.90
2018-07-03T04:54:10.931Z,99.90
2018-07-03T04:57:09.023Z,99.90
2018-07-03T05:00:06.351Z,99.90
2018-07-03T05:03:04.729Z,99.90
2018-07-03T05:06:02.929Z,99.90
2018-07-03T05:09:00.494Z,99.90
2018-07-03T05:11:57.792Z,99.90
2018-07-03T05:14:55.759Z,99.90
2018-07-03T05:17:53.938Z,99.90
2018-07-03T05:20:51.093Z,99.90
2018-07-03T05:23:48.257Z,99.90
2018-07-03T05:26:45.683Z,99.90
2018-07-03T05:32:33.465Z,99.90
2018-07-03T05:35:31.381Z,99.90
2018-07-03T05:38:29.394Z,99.90
2018-07-03T05:41:28.167Z,99.90
2018-07-03T05:44:25.871Z,99.90
2018-07-03T05:47:23.781Z,99.90
2018-07-03T05:50:21.545Z,99.90
2018-07-03T05:53:19.478Z,99.90
2018-07-03T05:56:17.379Z,99.90
2018-07-03T05:59:15.152Z,99.90
2018-07-03T06:02:12.917Z,99.90
2018-07-03T06:05:10.710Z,99.90
2018-07-03T06:08:08.606Z,99.90
2018-07-03T06:11:06.450Z,99.90
2018-07-03T06:14:05.397Z,99.90
2018-07-03T06:17:04.170Z,99.90
2018-07-03T06:20:02.000Z,99.90
2018-07-03T06:22:59.947Z,99.90
2018-07-03T06:25:57.726Z,99.90
2018-07-03T06:28:55.564Z,99.90
2018-07-03T06:31:53.395Z,99.90
2018-07-03T06:34:51.375Z,99.90
2018-07-03T06:37:49.092Z,99.90
2018-07-03T06:40:47.061Z,99.90
2018-07-03T06:43:45.314Z,99.90
2018-07-03T06:46:43.023Z,99.90
2018-07-03T06:52:30.839Z,99.90
2018-07-03T06:55:28.650Z,99.90
2018-07-03T06:58:26.539Z,99.90
2018-07-03T07:01:25.440Z,99.90
2018-07-03T07:04:23.460Z,99.90
2018-07-03T07:07:21.167Z,99.90
2018-07-03T07:10:19.908Z,99.90
2018-07-03T07:13:17.642Z,99.90
2018-07-03T07:16:15.372Z,99.90
2018-07-03T07:19:13.210Z,99.90
2018-07-03T07:22:10.922Z,99.90
2018-07-03T07:25:08.610Z,99.90
2018-07-03T07:28:06.994Z,99.90
2018-07-03T07:31:05.150Z,99.90
2018-07-03T07:34:03.325Z,99.90
2018-07-03T07:37:09.767Z,99.90
2018-07-03T07:40:07.689Z,99.90
2018-07-03T07:43:05.646Z,99.90
2018-07-03T07:46:03.674Z,99.90
2018-07-03T07:49:01.696Z,99.90
2018-07-03T07:51:59.653Z,99.90
2018-07-03T07:54:57.613Z,99.90
2018-07-03T07:57:55.548Z,99.90
2018-07-03T08:03:43.181Z,99.90
2018-07-03T08:06:41.126Z,99.90
2018-07-03T08:09:38.787Z,99.90
2018-07-03T08:12:36.566Z,99.90
2018-07-03T08:15:34.450Z,99.90
2018-07-03T08:18:32.449Z,99.90
2018-07-03T08:21:31.428Z,99.90
2018-07-03T08:24:29.454Z,99.90
2018-07-03T08:27:28.403Z,99.90
2018-07-03T08:30:26.089Z,99.90
2018-07-03T08:33:25.776Z,99.90
2018-07-03T08:36:23.767Z,99.90
2018-07-03T08:39:22.081Z,99.90
2018-07-03T08:42:19.991Z,99.90
2018-07-03T08:45:17.635Z,99.90
2018-07-03T08:48:15.059Z,99.90
2018-07-03T08:51:13.107Z,99.90
2018-07-03T08:54:11.102Z,99.90
2018-07-03T08:57:09.030Z,99.90
2018-07-03T09:00:06.891Z,99.90
2018-07-03T09:03:04.549Z,99.90
2018-07-03T09:06:02.552Z,99.90
2018-07-03T09:09:00.652Z,99.60
2018-07-03T09:11:58.535Z,99.60
2018-07-03T09:14:56.205Z,99.40
2018-07-03T09:17:54.048Z,99.80
2018-07-03T09:20:51.884Z,99.90
2018-07-03T09:23:49.606Z,99.90
2018-07-03T09:26:47.394Z,99.90
2018-07-03T09:29:45.458Z,99.90
2018-07-03T09:32:43.513Z,99.90
2018-07-03T09:35:41.564Z,99.90
2018-07-03T09:38:39.542Z,99.90
2018-07-03T09:41:37.779Z,99.90
2018-07-03T09:44:35.896Z,99.90
2018-07-03T09:47:33.460Z,99.90
2018-07-03T09:50:31.242Z,99.90
2018-07-03T09:53:29.236Z,99.90
2018-07-03T09:56:26.538Z,99.90
2018-07-03T09:59:23.863Z,99.90
2018-07-03T10:02:21.690Z,99.90
2018-07-03T10:05:19.822Z,99.90
2018-07-03T10:08:17.678Z,99.90
2018-07-03T10:11:15.708Z,99.90
2018-07-03T10:14:13.454Z,99.90
2018-07-03T10:17:11.492Z,99.90
2018-07-03T10:22:59.215Z,99.90
2018-07-03T10:25:57.196Z,99.90
2018-07-03T10:28:54.927Z,99.90
2018-07-03T10:31:54.343Z,99.90
2018-07-03T10:34:51.541Z,99.70
2018-07-03T10:37:49.666Z,99.70
2018-07-03T10:40:47.601Z,99.80
2018-07-03T10:43:46.482Z,99.70
2018-07-03T10:46:44.475Z,99.70
2018-07-03T10:49:42.446Z,99.20
2018-07-03T10:52:40.994Z,99.20
2018-07-03T10:55:39.024Z,98.80
2018-07-03T10:58:37.070Z,98.90
2018-07-03T11:01:35.019Z,99.00
2018-07-03T11:04:34.099Z,99.00
2018-07-03T11:07:32.065Z,98.70
2018-07-03T11:10:30.196Z,98.30
2018-07-03T11:13:27.582Z,98.00
2018-07-03T11:16:24.922Z,97.80
2018-07-03T11:19:22.171Z,98.10
2018-07-03T11:22:19.430Z,98.10
2018-07-03T11:25:17.990Z,97.80
2018-07-03T11:28:15.228Z,97.80
2018-07-03T11:31:12.569Z,97.50
2018-07-03T11:34:10.770Z,97.60
2018-07-03T11:37:07.856Z,97.30
2018-07-03T11:40:05.236Z,97.40
2018-07-03T11:43:02.506Z,97.50
2018-07-03T11:46:00.531Z,97.50
2018-07-03T11:48:57.982Z,97.10
2018-07-03T11:51:55.997Z,97.10
2018-07-03T11:54:55.662Z,96.70
2018-07-03T11:57:53.790Z,97.00
2018-07-03T12:00:51.103Z,97.00
2018-07-03T12:03:49.978Z,96.90
2018-07-03T12:06:48.799Z,97.00
2018-07-03T12:09:46.854Z,96.90
2018-07-03T12:12:44.934Z,96.70
2018-07-03T12:15:42.903Z,96.40
2018-07-03T12:18:46.791Z,96.40
2018-07-03T12:24:35.497Z,96.00
2018-07-03T12:27:34.473Z,96.20
2018-07-03T12:30:33.034Z,96.30
2018-07-03T12:33:30.855Z,96.00
2018-07-03T12:36:30.827Z,96.10
2018-07-03T12:39:30.675Z,96.00
2018-07-03T12:42:29.506Z,95.90
2018-07-03T12:45:27.351Z,96.00
2018-07-03T12:48:25.440Z,95.90
2018-07-03T12:51:23.410Z,95.60
2018-07-03T12:54:21.191Z,95.20
2018-07-03T12:57:19.107Z,95.50
2018-07-03T13:00:16.975Z,94.90
2018-07-03T13:03:14.684Z,94.50
2018-07-03T13:06:12.664Z,94.00
2018-07-03T13:09:11.648Z,94.20
2018-07-03T13:12:09.637Z,93.60
2018-07-03T13:15:07.481Z,93.70
2018-07-03T13:18:05.212Z,93.90
2018-07-03T13:21:02.512Z,93.60
2018-07-03T13:24:00.256Z,93.90
2018-07-03T13:26:58.300Z,93.80
2018-07-03T13:29:56.395Z,93.70
2018-07-03T13:32:54.290Z,93.20
2018-07-03T13:35:52.474Z,92.80
2018-07-03T13:38:49.826Z,92.80
2018-07-03T13:41:47.449Z,92.40
2018-07-03T13:44:45.552Z,92.00
2018-07-03T13:47:43.386Z,91.70
2018-07-03T13:50:41.339Z,91.20
2018-07-03T13:53:39.434Z,91.10
2018-07-03T13:56:37.360Z,91.10
2018-07-03T13:59:35.331Z,91.00
2018-07-03T14:02:33.041Z,90.70
2018-07-03T14:05:30.764Z,90.80
2018-07-03T14:08:28.622Z,90.70
2018-07-03T14:11:26.460Z,90.40
2018-07-03T14:14:24.097Z,89.90
2018-07-03T14:17:21.749Z,89.40
2018-07-03T14:20:19.722Z,89.10
2018-07-03T14:23:17.823Z,87.90
2018-07-03T14:26:16.129Z,87.30
2018-07-03T14:29:14.157Z,86.70
2018-07-03T14:32:12.222Z,85.90
2018-07-03T14:35:09.411Z,85.90
2018-07-03T14:38:07.608Z,84.50
2018-07-03T14:41:05.498Z,84.40
2018-07-03T14:44:03.282Z,84.20
2018-07-03T14:47:01.082Z,84.60
2018-07-03T14:50:00.086Z,84.80
2018-07-03T14:52:58.118Z,84.20
2018-07-03T14:55:56.114Z,83.90
2018-07-03T14:58:54.138Z,84.60
2018-07-03T15:01:51.939Z,85.00
2018-07-03T15:04:50.964Z,84.80
2018-07-03T15:07:48.925Z,84.80
2018-07-03T15:13:36.380Z,83.10
2018-07-03T15:16:34.275Z,83.00
2018-07-03T15:19:38.174Z,82.50
2018-07-03T15:22:35.874Z,81.90
2018-07-03T15:25:33.771Z,81.80
2018-07-03T15:28:32.763Z,82.00
2018-07-03T15:31:30.694Z,81.70
2018-07-03T15:34:28.668Z,81.20
2018-07-03T15:37:26.550Z,80.60
2018-07-03T15:40:24.643Z,80.70
2018-07-03T15:43:22.355Z,80.80
2018-07-03T15:46:21.215Z,80.00
2018-07-03T15:49:18.883Z,79.20
2018-07-03T15:52:16.311Z,79.00
2018-07-03T15:55:14.125Z,78.30
2018-07-03T15:58:11.874Z,77.00
2018-07-03T16:01:09.731Z,76.60
2018-07-03T16:04:20.595Z,75.40
2018-07-03T16:07:35.835Z,73.50
2018-07-03T16:10:33.752Z,71.90
2018-07-03T16:13:31.418Z,71.00
2018-07-03T16:16:29.298Z,70.60
2018-07-03T16:19:32.941Z,68.60
2018-07-03T16:22:30.683Z,68.20
2018-07-03T16:25:29.361Z,67.70
2018-07-03T16:28:28.187Z,66.70
2018-07-03T16:31:26.104Z,66.30
2018-07-03T16:34:24.582Z,65.60
2018-07-03T16:37:22.523Z,65.60
2018-07-03T16:40:20.369Z,65.60
2018-07-03T16:43:18.223Z,65.60
2018-07-03T16:46:16.111Z,65.90
2018-07-03T16:49:14.275Z,65.60
2018-07-03T16:52:12.027Z,65.70
2018-07-03T16:55:10.019Z,65.40
2018-07-03T16:58:07.839Z,65.10
2018-07-03T17:01:05.838Z,65.20
2018-07-03T17:04:04.112Z,65.30
2018-07-03T17:07:01.503Z,64.20
2018-07-03T17:09:59.419Z,64.70
2018-07-03T17:12:56.998Z,64.30
2018-07-03T17:15:54.825Z,64.60
2018-07-03T17:18:58.485Z,64.50
2018-07-03T17:21:56.738Z,64.80
2018-07-03T17:24:55.060Z,64.10
2018-07-03T17:27:52.732Z,64.10
2018-07-03T17:30:50.485Z,63.70
2018-07-03T17:36:39.189Z,63.20
2018-07-03T17:39:41.205Z,63.90
2018-07-03T17:42:51.284Z,65.10
2018-07-03T17:46:00.743Z,65.40
2018-07-03T17:48:58.844Z,66.20
2018-07-03T17:51:56.698Z,67.80
2018-07-03T17:54:54.576Z,68.10
2018-07-03T17:57:52.449Z,68.70
2018-07-03T18:00:50.580Z,68.60
2018-07-03T18:03:48.456Z,68.90
2018-07-03T18:06:46.211Z,69.30
2018-07-03T18:09:44.096Z,69.80
2018-07-03T18:12:42.050Z,69.80
2018-07-03T18:15:39.875Z,69.90
2018-07-03T18:18:37.520Z,69.80
2018-07-03T18:21:35.535Z,69.80
2018-07-03T18:24:33.337Z,69.50
2018-07-03T18:27:31.074Z,68.70
2018-07-03T18:30:29.987Z,68.70
2018-07-03T18:33:27.789Z,69.10
2018-07-03T18:42:20.845Z,70.20
2018-07-03T18:45:18.663Z,70.20
2018-07-03T18:48:16.466Z,70.50
2018-07-03T18:51:14.434Z,70.90
2018-07-03T18:54:12.390Z,70.90
2018-07-03T18:57:10.174Z,70.00
2018-07-03T19:00:08.087Z,70.20
2018-07-03T19:03:05.973Z,70.20
2018-07-03T19:06:03.851Z,70.10
2018-07-03T19:09:01.600Z,70.30
2018-07-03T19:14:49.463Z,71.00
2018-07-03T19:17:47.514Z,71.80
2018-07-03T19:20:45.180Z,71.70
2018-07-03T19:23:43.263Z,72.00
2018-07-03T19:26:40.901Z,73.40
2018-07-03T19:29:38.606Z,73.90
2018-07-03T19:32:36.775Z,74.50
2018-07-03T19:35:34.436Z,74.50
2018-07-03T19:38:32.508Z,74.40
2018-07-03T19:41:30.429Z,74.40
2018-07-03T19:44:28.335Z,74.40
2018-07-03T19:47:26.293Z,75.00
2018-07-03T19:50:24.259Z,76.50
2018-07-03T19:53:22.280Z,75.50
2018-07-03T19:56:20.552Z,76.20
2018-07-03T19:59:18.322Z,76.90
2018-07-03T20:02:16.225Z,76.50
2018-07-03T20:05:14.029Z,76.80
2018-07-03T20:08:11.922Z,77.80
2018-07-03T20:11:09.799Z,78.10
2018-07-03T20:14:07.785Z,79.20
2018-07-03T20:17:05.469Z,78.80
2018-07-03T20:20:03.487Z,78.90
2018-07-03T20:23:01.319Z,78.90
2018-07-03T20:25:59.384Z,78.30
2018-07-03T20:28:57.311Z,79.60
2018-07-03T20:31:55.274Z,80.20
2018-07-03T20:34:52.912Z,82.10
2018-07-03T20:38:10.796Z,84.80
2018-07-03T20:41:14.664Z,83.00
2018-07-03T20:44:12.571Z,85.80
2018-07-03T20:47:10.508Z,86.20
2018-07-03T20:50:08.391Z,87.50
2018-07-03T20:53:06.267Z,87.50
2018-07-03T20:56:04.710Z,86.20
2018-07-03T20:59:02.218Z,85.10
2018-07-03T21:02:00.138Z,85.50
2018-07-03T21:04:58.130Z,85.70
2018-07-03T21:07:55.923Z,86.30
2018-07-03T21:10:54.939Z,85.70
2018-07-03T21:13:52.564Z,85.50
2018-07-03T21:16:50.529Z,85.50
2018-07-03T21:19:48.264Z,85.20
2018-07-03T21:22:45.540Z,85.40
2018-07-03T21:25:43.406Z,85.60
2018-07-03T21:28:41.290Z,85.80
2018-07-03T21:31:39.167Z,87.00
2018-07-03T21:34:36.985Z,86.90
2018-07-03T21:40:46.766Z,86.80
2018-07-03T21:43:44.779Z,86.20
2018-07-03T21:46:42.769Z,86.50
2018-07-03T21:49:40.555Z,90.70
2018-07-03T21:52:38.447Z,89.40
2018-07-03T21:55:36.018Z,90.40
2018-07-03T21:58:33.823Z,90.00
2018-07-03T22:01:31.660Z,90.10
2018-07-03T22:04:29.528Z,90.30
2018-07-03T22:07:27.446Z,90.10
2018-07-03T22:10:25.077Z,90.20
2018-07-03T22:13:22.958Z,90.00
2018-07-03T22:16:20.661Z,90.40
2018-07-03T22:19:18.541Z,91.50
2018-07-03T22:22:16.586Z,93.90
2018-07-03T22:25:14.476Z,94.30
2018-07-03T22:28:12.516Z,94.70
2018-07-03T22:31:10.119Z,95.30
2018-07-03T22:34:08.020Z,95.90
2018-07-03T22:37:05.756Z,96.40
2018-07-03T22:40:03.643Z,97.50
2018-07-03T22:43:01.491Z,98.80
2018-07-03T22:45:59.368Z,98.10
2018-07-03T22:48:57.014Z,97.70
2018-07-03T22:51:54.838Z,97.40
2018-07-03T22:54:52.747Z,97.50
2018-07-03T22:57:49.983Z,97.00
2018-07-03T23:00:47.948Z,96.80
2018-07-03T23:03:45.593Z,95.80
2018-07-03T23:06:43.764Z,95.60
2018-07-03T23:09:41.723Z,95.10
2018-07-03T23:12:39.611Z,95.00
2018-07-03T23:15:37.410Z,95.40
2018-07-03T23:18:35.206Z,96.60
2018-07-03T23:21:32.957Z,97.50
2018-07-03T23:24:30.676Z,96.70
2018-07-03T23:27:28.497Z,96.30
2018-07-03T23:30:26.314Z,96.10
2018-07-03T23:33:24.096Z,96.10
2018-07-03T23:36:21.880Z,97.20
2018-07-03T23:39:21.508Z,97.70
2018-07-03T23:42:19.402Z,97.70
2018-07-03T23:45:17.401Z,97.10
2018-07-03T23:48:27.474Z,97.20
2018-07-03T23:51:36.858Z,97.30
2018-07-03T23:54:46.311Z,97.80
2018-07-03T23:57:55.903Z,98.20
